sensor_id;sensor_type;location;lat;lon;timestamp;P1;durP1;ratioP1;P2;durP2;ratioP2
49153;SDS011;49455;52.252;9.124;2023-03-14T00:00:13;4.93;;;1.83;;
49153;SDS011;49455;52.252;9.124;2023-03-14T00:05:14;6.55;;;2.22;;
49153;SDS011;49455;52.252;9.124;2023-03-14T00:10:15;6.88;;;2.38;;
49153;SDS011;49455;52.252;9.124;2023-03-14T00:15:16;10.25;;;2.60;;
49153;SDS011;49455;52.252;9.124;2023-03-14T00:20:16;4.80;;;2.13;;
49153;SDS011;49455;52.252;9.124;2023-03-14T00:25:17;6.05;;;2.03;;
49153;SDS011;49455;52.252;9.124;2023-03-14T00:30:17;4.95;;;1.58;;
49153;SDS011;49455;52.252;9.124;2023-03-14T00:35:18;9.18;;;2.10;;
49153;SDS011;49455;52.252;9.124;2023-03-14T00:40:18;4.80;;;2.10;;
49153;SDS011;49455;52.252;9.124;2023-03-14T00:45:18;4.13;;;1.88;;
49153;SDS011;49455;52.252;9.124;2023-03-14T00:50:19;7.13;;;1.95;;
49153;SDS011;49455;52.252;9.124;2023-03-14T00:55:19;6.53;;;2.20;;
49153;SDS011;49455;52.252;9.124;2023-03-14T01:00:20;7.38;;;2.15;;
49153;SDS011;49455;52.252;9.124;2023-03-14T01:05:21;8.05;;;2.38;;
49153;SDS011;49455;52.252;9.124;2023-03-14T01:10:22;7.13;;;2.60;;
49153;SDS011;49455;52.252;9.124;2023-03-14T01:15:23;4.97;;;2.00;;
49153;SDS011;49455;52.252;9.124;2023-03-14T01:20:24;9.18;;;2.17;;
49153;SDS011;49455;52.252;9.124;2023-03-14T01:25:24;4.25;;;2.22;;
49153;SDS011;49455;52.252;9.124;2023-03-14T01:30:25;5.63;;;2.05;;
49153;SDS011;49455;52.252;9.124;2023-03-14T01:35:25;8.20;;;2.08;;
49153;SDS011;49455;52.252;9.124;2023-03-14T01:40:30;6.47;;;2.00;;
49153;SDS011;49455;52.252;9.124;2023-03-14T01:51:07;9.05;;;2.20;;
49153;SDS011;49455;52.252;9.124;2023-03-14T01:56:11;6.10;;;2.13;;
49153;SDS011;49455;52.252;9.124;2023-03-14T02:01:15;5.32;;;1.85;;
49153;SDS011;49455;52.252;9.124;2023-03-14T02:06:19;7.53;;;2.35;;
49153;SDS011;49455;52.252;9.124;2023-03-14T02:11:26;10.88;;;2.50;;
49153;SDS011;49455;52.252;9.124;2023-03-14T02:16:36;7.47;;;2.08;;
49153;SDS011;49455;52.252;9.124;2023-03-14T02:22:18;8.65;;;2.63;;
49153;SDS011;49455;52.252;9.124;2023-03-14T02:27:24;7.68;;;2.13;;
49153;SDS011;49455;52.252;9.124;2023-03-14T02:32:27;9.43;;;1.80;;
49153;SDS011;49455;52.252;9.124;2023-03-14T02:37:48;8.25;;;2.00;;
49153;SDS011;49455;52.252;9.124;2023-03-14T02:42:52;7.10;;;2.47;;
49153;SDS011;49455;52.252;9.124;2023-03-14T02:47:54;6.65;;;2.20;;
49153;SDS011;49455;52.252;9.124;2023-03-14T02:53:00;7.53;;;1.80;;
49153;SDS011;49455;52.252;9.124;2023-03-14T02:58:01;6.80;;;1.90;;
49153;SDS011;49455;52.252;9.124;2023-03-14T03:03:02;9.80;;;1.80;;
49153;SDS011;49455;52.252;9.124;2023-03-14T03:08:03;10.88;;;2.17;;
49153;SDS011;49455;52.252;9.124;2023-03-14T03:13:04;4.75;;;1.75;;
49153;SDS011;49455;52.252;9.124;2023-03-14T03:18:05;3.30;;;1.00;;
49153;SDS011;49455;52.252;9.124;2023-03-14T03:23:06;1.98;;;0.73;;
49153;SDS011;49455;52.252;9.124;2023-03-14T03:28:06;2.25;;;0.50;;
49153;SDS011;49455;52.252;9.124;2023-03-14T03:33:07;1.38;;;0.65;;
49153;SDS011;49455;52.252;9.124;2023-03-14T03:38:08;2.80;;;0.90;;
49153;SDS011;49455;52.252;9.124;2023-03-14T03:43:09;1.42;;;0.68;;
49153;SDS011;49455;52.252;9.124;2023-03-14T03:48:12;5.00;;;1.02;;
49153;SDS011;49455;52.252;9.124;2023-03-14T03:53:12;3.20;;;0.88;;
49153;SDS011;49455;52.252;9.124;2023-03-14T03:58:13;3.65;;;1.02;;
49153;SDS011;49455;52.252;9.124;2023-03-14T04:03:13;4.28;;;1.20;;
49153;SDS011;49455;52.252;9.124;2023-03-14T04:08:15;4.00;;;1.10;;
49153;SDS011;49455;52.252;9.124;2023-03-14T04:13:15;5.38;;;1.70;;
49153;SDS011;49455;52.252;9.124;2023-03-14T04:18:18;2.78;;;0.95;;
49153;SDS011;49455;52.252;9.124;2023-03-14T04:23:19;4.25;;;1.15;;
49153;SDS011;49455;52.252;9.124;2023-03-14T04:28:23;6.40;;;1.08;;
49153;SDS011;49455;52.252;9.124;2023-03-14T04:33:23;4.57;;;1.27;;
49153;SDS011;49455;52.252;9.124;2023-03-14T04:38:27;7.07;;;1.30;;
49153;SDS011;49455;52.252;9.124;2023-03-14T04:43:28;7.63;;;1.83;;
49153;SDS011;49455;52.252;9.124;2023-03-14T04:48:35;4.90;;;1.00;;
49153;SDS011;49455;52.252;9.124;2023-03-14T04:53:36;4.60;;;1.38;;
49153;SDS011;49455;52.252;9.124;2023-03-14T04:58:39;5.65;;;1.73;;
49153;SDS011;49455;52.252;9.124;2023-03-14T05:03:40;6.53;;;1.83;;
49153;SDS011;49455;52.252;9.124;2023-03-14T05:08:56;5.00;;;1.58;;
49153;SDS011;49455;52.252;9.124;2023-03-14T05:13:56;8.48;;;2.42;;
49153;SDS011;49455;52.252;9.124;2023-03-14T05:19:15;8.00;;;2.05;;
49153;SDS011;49455;52.252;9.124;2023-03-14T05:24:34;9.65;;;2.35;;
49153;SDS011;49455;52.252;9.124;2023-03-14T05:29:48;10.15;;;1.80;;
49153;SDS011;49455;52.252;9.124;2023-03-14T05:34:51;7.43;;;2.13;;
49153;SDS011;49455;52.252;9.124;2023-03-14T05:40:27;8.80;;;2.20;;
49153;SDS011;49455;52.252;9.124;2023-03-14T05:45:46;9.68;;;2.72;;
49153;SDS011;49455;52.252;9.124;2023-03-14T05:51:05;8.57;;;1.90;;
49153;SDS011;49455;52.252;9.124;2023-03-14T05:56:21;11.43;;;2.40;;
49153;SDS011;49455;52.252;9.124;2023-03-14T06:01:39;5.60;;;1.60;;
49153;SDS011;49455;52.252;9.124;2023-03-14T06:06:46;10.63;;;1.90;;
49153;SDS011;49455;52.252;9.124;2023-03-14T06:11:47;7.85;;;1.80;;
49153;SDS011;49455;52.252;9.124;2023-03-14T06:16:47;6.72;;;1.73;;
49153;SDS011;49455;52.252;9.124;2023-03-14T06:21:48;5.63;;;1.33;;
49153;SDS011;49455;52.252;9.124;2023-03-14T06:26:49;5.13;;;1.25;;
49153;SDS011;49455;52.252;9.124;2023-03-14T06:31:49;3.40;;;1.00;;
49153;SDS011;49455;52.252;9.124;2023-03-14T06:36:52;4.53;;;1.02;;
49153;SDS011;49455;52.252;9.124;2023-03-14T06:41:52;4.32;;;1.15;;
49153;SDS011;49455;52.252;9.124;2023-03-14T06:46:53;3.17;;;0.80;;
49153;SDS011;49455;52.252;9.124;2023-03-14T06:51:54;2.30;;;0.70;;
49153;SDS011;49455;52.252;9.124;2023-03-14T06:56:55;2.63;;;0.73;;
49153;SDS011;49455;52.252;9.124;2023-03-14T07:01:56;1.95;;;0.75;;
49153;SDS011;49455;52.252;9.124;2023-03-14T07:06:56;0.77;;;0.70;;
49153;SDS011;49455;52.252;9.124;2023-03-14T07:11:57;0.73;;;0.50;;
49153;SDS011;49455;52.252;9.124;2023-03-14T07:16:59;1.20;;;0.50;;
49153;SDS011;49455;52.252;9.124;2023-03-14T07:21:59;2.35;;;0.50;;
49153;SDS011;49455;52.252;9.124;2023-03-14T07:27:02;1.63;;;0.45;;
49153;SDS011;49455;52.252;9.124;2023-03-14T07:32:03;1.25;;;0.60;;
49153;SDS011;49455;52.252;9.124;2023-03-14T07:37:04;1.48;;;0.73;;
49153;SDS011;49455;52.252;9.124;2023-03-14T07:42:04;0.70;;;0.47;;
49153;SDS011;49455;52.252;9.124;2023-03-14T07:47:37;3.30;;;0.70;;
49153;SDS011;49455;52.252;9.124;2023-03-14T07:52:38;1.85;;;0.40;;
49153;SDS011;49455;52.252;9.124;2023-03-14T07:57:39;2.88;;;0.55;;
49153;SDS011;49455;52.252;9.124;2023-03-14T08:02:42;4.18;;;0.52;;
49153;SDS011;49455;52.252;9.124;2023-03-14T08:07:42;0.47;;;0.40;;
49153;SDS011;49455;52.252;9.124;2023-03-14T08:12:43;2.25;;;1.00;;
49153;SDS011;49455;52.252;9.124;2023-03-14T08:17:43;2.83;;;1.80;;
49153;SDS011;49455;52.252;9.124;2023-03-14T08:22:44;4.65;;;1.20;;
49153;SDS011;49455;52.252;9.124;2023-03-14T08:27:44;2.22;;;1.35;;
49153;SDS011;49455;52.252;9.124;2023-03-14T08:32:44;0.68;;;0.65;;
49153;SDS011;49455;52.252;9.124;2023-03-14T08:37:45;1.67;;;1.05;;
49153;SDS011;49455;52.252;9.124;2023-03-14T08:42:45;3.47;;;1.00;;
49153;SDS011;49455;52.252;9.124;2023-03-14T08:47:46;2.97;;;1.00;;
49153;SDS011;49455;52.252;9.124;2023-03-14T08:52:46;2.00;;;1.00;;
49153;SDS011;49455;52.252;9.124;2023-03-14T08:57:47;1.50;;;1.10;;
49153;SDS011;49455;52.252;9.124;2023-03-14T09:02:47;1.60;;;1.42;;
49153;SDS011;49455;52.252;9.124;2023-03-14T09:07:47;1.60;;;1.20;;
49153;SDS011;49455;52.252;9.124;2023-03-14T09:12:48;3.75;;;1.25;;
49153;SDS011;49455;52.252;9.124;2023-03-14T09:17:48;3.25;;;1.50;;
49153;SDS011;49455;52.252;9.124;2023-03-14T09:22:49;2.40;;;1.48;;
49153;SDS011;49455;52.252;9.124;2023-03-14T09:27:49;1.98;;;1.30;;
49153;SDS011;49455;52.252;9.124;2023-03-14T09:32:49;2.75;;;1.40;;
49153;SDS011;49455;52.252;9.124;2023-03-14T09:37:50;3.53;;;1.98;;
49153;SDS011;49455;52.252;9.124;2023-03-14T09:42:50;2.05;;;1.65;;
49153;SDS011;49455;52.252;9.124;2023-03-14T09:47:53;2.15;;;1.80;;
49153;SDS011;49455;52.252;9.124;2023-03-14T09:52:59;3.92;;;2.47;;
49153;SDS011;49455;52.252;9.124;2023-03-14T09:58:08;2.35;;;2.13;;
49153;SDS011;49455;52.252;9.124;2023-03-14T10:08:12;3.30;;;2.63;;
49153;SDS011;49455;52.252;9.124;2023-03-14T10:13:19;5.15;;;3.05;;
49153;SDS011;49455;52.252;9.124;2023-03-14T10:18:20;3.67;;;3.38;;
49153;SDS011;49455;52.252;9.124;2023-03-14T10:33:27;4.00;;;3.38;;
49153;SDS011;49455;52.252;9.124;2023-03-14T10:38:32;3.80;;;3.50;;
49153;SDS011;49455;52.252;9.124;2023-03-14T10:43:34;4.22;;;3.83;;
49153;SDS011;49455;52.252;9.124;2023-03-14T10:48:36;5.32;;;4.72;;
49153;SDS011;49455;52.252;9.124;2023-03-14T10:53:39;3.30;;;2.15;;
49153;SDS011;49455;52.252;9.124;2023-03-14T10:58:43;4.72;;;1.38;;
49153;SDS011;49455;52.252;9.124;2023-03-14T11:03:49;0.77;;;0.68;;
49153;SDS011;49455;52.252;9.124;2023-03-14T11:09:07;1.20;;;0.70;;
49153;SDS011;49455;52.252;9.124;2023-03-14T11:14:41;2.20;;;1.40;;
49153;SDS011;49455;52.252;9.124;2023-03-14T11:35:47;0.20;;;0.20;;
49153;SDS011;49455;52.252;9.124;2023-03-14T11:40:53;0.45;;;0.32;;
49153;SDS011;49455;52.252;9.124;2023-03-14T11:51:12;0.55;;;0.30;;
49153;SDS011;49455;52.252;9.124;2023-03-14T12:01:52;0.50;;;0.40;;
49153;SDS011;49455;52.252;9.124;2023-03-14T12:07:20;1.58;;;0.50;;
49153;SDS011;49455;52.252;9.124;2023-03-14T12:12:24;1.52;;;0.90;;
49153;SDS011;49455;52.252;9.124;2023-03-14T12:22:45;4.13;;;1.30;;
49153;SDS011;49455;52.252;9.124;2023-03-14T12:38:14;4.15;;;1.88;;
49153;SDS011;49455;52.252;9.124;2023-03-14T12:43:51;4.15;;;1.38;;
49153;SDS011;49455;52.252;9.124;2023-03-14T12:48:45;7.88;;;1.30;;
49153;SDS011;49455;52.252;9.124;2023-03-14T12:59:52;4.78;;;1.55;;
49153;SDS011;49455;52.252;9.124;2023-03-14T13:05:16;11.43;;;2.33;;
49153;SDS011;49455;52.252;9.124;2023-03-14T13:10:23;7.10;;;2.00;;
49153;SDS011;49455;52.252;9.124;2023-03-14T13:20:34;9.30;;;1.65;;
49153;SDS011;49455;52.252;9.124;2023-03-14T13:25:37;9.63;;;2.28;;
49153;SDS011;49455;52.252;9.124;2023-03-14T13:30:45;5.82;;;1.42;;
49153;SDS011;49455;52.252;9.124;2023-03-14T13:36:08;10.13;;;2.30;;
49153;SDS011;49455;52.252;9.124;2023-03-14T13:41:10;15.13;;;2.40;;
49153;SDS011;49455;52.252;9.124;2023-03-14T13:46:22;10.50;;;2.42;;
49153;SDS011;49455;52.252;9.124;2023-03-14T13:51:23;14.27;;;2.28;;
49153;SDS011;49455;52.252;9.124;2023-03-14T13:56:31;13.60;;;1.93;;
49153;SDS011;49455;52.252;9.124;2023-03-14T14:01:33;20.05;;;3.08;;
49153;SDS011;49455;52.252;9.124;2023-03-14T14:06:35;17.00;;;3.50;;
49153;SDS011;49455;52.252;9.124;2023-03-14T14:16:51;17.15;;;4.20;;
49153;SDS011;49455;52.252;9.124;2023-03-14T14:21:52;22.48;;;3.90;;
49153;SDS011;49455;52.252;9.124;2023-03-14T14:26:54;11.90;;;3.15;;
49153;SDS011;49455;52.252;9.124;2023-03-14T14:32:19;19.88;;;2.90;;
49153;SDS011;49455;52.252;9.124;2023-03-14T14:37:24;13.33;;;3.77;;
49153;SDS011;49455;52.252;9.124;2023-03-14T14:47:47;12.35;;;2.75;;
49153;SDS011;49455;52.252;9.124;2023-03-14T14:52:55;16.67;;;2.78;;
49153;SDS011;49455;52.252;9.124;2023-03-14T14:57:57;15.10;;;2.70;;
49153;SDS011;49455;52.252;9.124;2023-03-14T15:03:01;14.10;;;2.57;;
49153;SDS011;49455;52.252;9.124;2023-03-14T15:08:01;16.45;;;3.03;;
49153;SDS011;49455;52.252;9.124;2023-03-14T15:13:01;12.47;;;2.67;;
49153;SDS011;49455;52.252;9.124;2023-03-14T15:18:02;17.33;;;2.60;;
49153;SDS011;49455;52.252;9.124;2023-03-14T15:23:04;11.30;;;2.37;;
49153;SDS011;49455;52.252;9.124;2023-03-14T15:28:22;13.40;;;2.58;;
49153;SDS011;49455;52.252;9.124;2023-03-14T15:33:25;11.13;;;2.47;;
49153;SDS011;49455;52.252;9.124;2023-03-14T15:38:26;10.60;;;2.57;;
49153;SDS011;49455;52.252;9.124;2023-03-14T15:43:26;11.25;;;3.08;;
49153;SDS011;49455;52.252;9.124;2023-03-14T15:48:27;14.20;;;2.97;;
49153;SDS011;49455;52.252;9.124;2023-03-14T15:53:27;13.23;;;3.23;;
49153;SDS011;49455;52.252;9.124;2023-03-14T15:58:27;15.67;;;3.27;;
49153;SDS011;49455;52.252;9.124;2023-03-14T16:03:28;11.37;;;2.87;;
49153;SDS011;49455;52.252;9.124;2023-03-14T16:08:29;11.83;;;2.20;;
49153;SDS011;49455;52.252;9.124;2023-03-14T16:13:29;14.27;;;2.40;;
49153;SDS011;49455;52.252;9.124;2023-03-14T16:18:30;13.17;;;2.80;;
49153;SDS011;49455;52.252;9.124;2023-03-14T16:23:33;13.95;;;2.53;;
49153;SDS011;49455;52.252;9.124;2023-03-14T16:28:34;14.38;;;2.70;;
49153;SDS011;49455;52.252;9.124;2023-03-14T16:33:35;18.17;;;2.83;;
49153;SDS011;49455;52.252;9.124;2023-03-14T16:38:38;10.93;;;2.63;;
49153;SDS011;49455;52.252;9.124;2023-03-14T16:43:39;11.00;;;2.55;;
49153;SDS011;49455;52.252;9.124;2023-03-14T16:48:40;14.17;;;2.70;;
49153;SDS011;49455;52.252;9.124;2023-03-14T16:53:41;12.70;;;2.23;;
49153;SDS011;49455;52.252;9.124;2023-03-14T16:58:42;12.20;;;2.33;;
49153;SDS011;49455;52.252;9.124;2023-03-14T17:03:46;13.80;;;2.33;;
49153;SDS011;49455;52.252;9.124;2023-03-14T17:08:48;11.85;;;2.13;;
49153;SDS011;49455;52.252;9.124;2023-03-14T17:13:49;18.73;;;2.67;;
49153;SDS011;49455;52.252;9.124;2023-03-14T17:18:50;9.97;;;2.63;;
49153;SDS011;49455;52.252;9.124;2023-03-14T17:23:50;11.70;;;2.78;;
49153;SDS011;49455;52.252;9.124;2023-03-14T17:28:51;10.65;;;2.47;;
49153;SDS011;49455;52.252;9.124;2023-03-14T17:33:51;9.40;;;1.60;;
49153;SDS011;49455;52.252;9.124;2023-03-14T17:38:51;16.80;;;3.00;;
49153;SDS011;49455;52.252;9.124;2023-03-14T17:43:52;9.10;;;2.40;;
49153;SDS011;49455;52.252;9.124;2023-03-14T17:48:52;8.10;;;1.80;;
49153;SDS011;49455;52.252;9.124;2023-03-14T17:53:53;9.13;;;2.53;;
49153;SDS011;49455;52.252;9.124;2023-03-14T17:58:55;15.37;;;3.60;;
49153;SDS011;49455;52.252;9.124;2023-03-14T18:03:58;20.10;;;3.30;;
49153;SDS011;49455;52.252;9.124;2023-03-14T18:09:04;21.98;;;2.63;;
49153;SDS011;49455;52.252;9.124;2023-03-14T18:14:04;8.50;;;2.80;;
49153;SDS011;49455;52.252;9.124;2023-03-14T18:19:05;14.67;;;3.80;;
49153;SDS011;49455;52.252;9.124;2023-03-14T18:24:05;13.47;;;3.83;;
49153;SDS011;49455;52.252;9.124;2023-03-14T18:29:06;14.77;;;3.87;;
49153;SDS011;49455;52.252;9.124;2023-03-14T18:34:06;9.47;;;4.23;;
49153;SDS011;49455;52.252;9.124;2023-03-14T18:39:07;18.83;;;5.70;;
49153;SDS011;49455;52.252;9.124;2023-03-14T18:44:08;14.37;;;4.67;;
49153;SDS011;49455;52.252;9.124;2023-03-14T18:49:09;8.90;;;3.30;;
49153;SDS011;49455;52.252;9.124;2023-03-14T18:54:10;14.60;;;4.15;;
49153;SDS011;49455;52.252;9.124;2023-03-14T18:59:10;13.53;;;4.20;;
49153;SDS011;49455;52.252;9.124;2023-03-14T19:04:11;12.43;;;3.63;;
49153;SDS011;49455;52.252;9.124;2023-03-14T19:09:12;14.27;;;3.50;;
49153;SDS011;49455;52.252;9.124;2023-03-14T19:14:14;8.15;;;3.30;;
49153;SDS011;49455;52.252;9.124;2023-03-14T19:19:14;15.77;;;3.33;;
49153;SDS011;49455;52.252;9.124;2023-03-14T19:24:16;17.37;;;4.57;;
49153;SDS011;49455;52.252;9.124;2023-03-14T19:29:18;13.20;;;4.15;;
49153;SDS011;49455;52.252;9.124;2023-03-14T19:34:18;17.73;;;3.70;;
49153;SDS011;49455;52.252;9.124;2023-03-14T19:39:18;14.03;;;3.30;;
49153;SDS011;49455;52.252;9.124;2023-03-14T19:44:19;10.90;;;3.83;;
49153;SDS011;49455;52.252;9.124;2023-03-14T19:49:20;13.53;;;3.20;;
49153;SDS011;49455;52.252;9.124;2023-03-14T19:54:21;13.20;;;4.20;;
49153;SDS011;49455;52.252;9.124;2023-03-14T19:59:21;17.83;;;5.50;;
49153;SDS011;49455;52.252;9.124;2023-03-14T20:04:22;20.13;;;3.97;;
49153;SDS011;49455;52.252;9.124;2023-03-14T20:09:23;16.40;;;2.90;;
49153;SDS011;49455;52.252;9.124;2023-03-14T20:14:24;12.13;;;2.67;;
49153;SDS011;49455;52.252;9.124;2023-03-14T20:19:24;15.70;;;3.07;;
49153;SDS011;49455;52.252;9.124;2023-03-14T20:24:25;16.47;;;3.00;;
49153;SDS011;49455;52.252;9.124;2023-03-14T20:29:25;12.63;;;2.57;;
49153;SDS011;49455;52.252;9.124;2023-03-14T20:34:25;17.73;;;3.30;;
49153;SDS011;49455;52.252;9.124;2023-03-14T20:39:26;14.40;;;3.13;;
49153;SDS011;49455;52.252;9.124;2023-03-14T20:44:26;14.63;;;2.70;;
49153;SDS011;49455;52.252;9.124;2023-03-14T20:49:27;17.63;;;2.97;;
49153;SDS011;49455;52.252;9.124;2023-03-14T20:54:27;13.40;;;3.43;;
49153;SDS011;49455;52.252;9.124;2023-03-14T20:59:27;19.67;;;3.70;;
49153;SDS011;49455;52.252;9.124;2023-03-14T21:04:28;14.77;;;3.30;;
49153;SDS011;49455;52.252;9.124;2023-03-14T21:09:28;20.13;;;3.60;;
49153;SDS011;49455;52.252;9.124;2023-03-14T21:14:28;14.80;;;3.60;;
49153;SDS011;49455;52.252;9.124;2023-03-14T21:19:29;16.57;;;2.63;;
49153;SDS011;49455;52.252;9.124;2023-03-14T21:24:30;14.07;;;2.90;;
49153;SDS011;49455;52.252;9.124;2023-03-14T21:29:31;12.90;;;2.50;;
49153;SDS011;49455;52.252;9.124;2023-03-14T21:34:31;13.47;;;3.43;;
49153;SDS011;49455;52.252;9.124;2023-03-14T21:39:32;15.80;;;2.80;;
49153;SDS011;49455;52.252;9.124;2023-03-14T21:44:33;17.43;;;3.47;;
49153;SDS011;49455;52.252;9.124;2023-03-14T21:49:33;18.80;;;3.17;;
49153;SDS011;49455;52.252;9.124;2023-03-14T21:54:34;14.90;;;2.97;;
49153;SDS011;49455;52.252;9.124;2023-03-14T21:59:35;12.30;;;3.23;;
49153;SDS011;49455;52.252;9.124;2023-03-14T22:04:36;16.52;;;3.80;;
49153;SDS011;49455;52.252;9.124;2023-03-14T22:09:38;18.87;;;3.00;;
49153;SDS011;49455;52.252;9.124;2023-03-14T22:14:39;13.75;;;3.42;;
49153;SDS011;49455;52.252;9.124;2023-03-14T22:19:40;16.07;;;3.80;;
49153;SDS011;49455;52.252;9.124;2023-03-14T22:24:40;13.73;;;2.30;;
49153;SDS011;49455;52.252;9.124;2023-03-14T22:29:40;12.00;;;3.60;;
49153;SDS011;49455;52.252;9.124;2023-03-14T22:34:41;13.53;;;2.87;;
49153;SDS011;49455;52.252;9.124;2023-03-14T22:39:41;10.63;;;2.97;;
49153;SDS011;49455;52.252;9.124;2023-03-14T22:44:44;16.30;;;3.00;;
49153;SDS011;49455;52.252;9.124;2023-03-14T22:49:45;18.67;;;3.73;;
49153;SDS011;49455;52.252;9.124;2023-03-14T22:54:45;12.30;;;3.30;;
49153;SDS011;49455;52.252;9.124;2023-03-14T22:59:45;12.03;;;2.73;;
49153;SDS011;49455;52.252;9.124;2023-03-14T23:04:46;16.43;;;3.00;;
49153;SDS011;49455;52.252;9.124;2023-03-14T23:09:46;12.70;;;2.90;;
49153;SDS011;49455;52.252;9.124;2023-03-14T23:14:47;15.63;;;2.90;;
49153;SDS011;49455;52.252;9.124;2023-03-14T23:19:47;16.40;;;2.73;;
49153;SDS011;49455;52.252;9.124;2023-03-14T23:24:47;17.07;;;2.77;;
49153;SDS011;49455;52.252;9.124;2023-03-14T23:29:48;13.97;;;3.23;;
49153;SDS011;49455;52.252;9.124;2023-03-14T23:34:48;15.13;;;2.90;;
49153;SDS011;49455;52.252;9.124;2023-03-14T23:39:49;17.73;;;3.10;;
49153;SDS011;49455;52.252;9.124;2023-03-14T23:44:49;12.17;;;2.57;;
49153;SDS011;49455;52.252;9.124;2023-03-14T23:49:50;12.70;;;2.80;;
49153;SDS011;49455;52.252;9.124;2023-03-14T23:54:50;11.93;;;2.47;;
49153;SDS011;49455;52.252;9.124;2023-03-14T23:59:50;16.43;;;3.03;;
